Himawari 2 — JG5636 — position and weather

sailwx.info

Track history (hours):
 
Tides and Currents Weather Stations Pressure Air Temp Water Temp Dewpoint Dewpoint Depression Visibility Wind Speed Wind Dir Waves Ship Positions

Himawari 2

Last reported at 2015-Apr-20 17:27 UTC. Time now 2015-Apr-21 01:25 UTC.
Position N 33°56' E 135°00'.

Length 161 m; draft 6.5 m.

Type: Cargo ship. MMSI: 431100957.

Date/timePositionNaut miles runAvg speedWind from/ knotsBaromVisibWave heightAir tempDewpointWater temp
2015-Apr-20 17:27N 33°56' E 135°00'1517.2
2015-Apr-20 16:33N 34°11' E 134°59'1616.4
2015-Apr-20 15:33N 34°26' E 135°08'8 7.7
2015-Apr-20 14:33N 34°30' E 135°16'0 0.0
2015-Apr-20 13:33N 34°30' E 135°16'0 0.0
2015-Apr-20 12:33N 34°30' E 135°16'0 0.0
2015-Apr-20 11:27N 34°30' E 135°16'0 0.0
2015-Apr-20 10:21N 34°30' E 135°16'0 0.0
2015-Apr-20 09:27N 34°30' E 135°16'7 8.0
2015-Apr-20 08:33N 34°36' E 135°20'5 4.8
2015-Apr-20 07:31N 34°40' E 135°24'0 0.0
2015-Apr-20 06:25N 34°40' E 135°24'0 0.0
2015-Apr-20 05:25N 34°40' E 135°24'0 0.0
2015-Apr-20 04:25N 34°40' E 135°24'0 0.0
2015-Apr-20 03:25N 34°40' E 135°24'0 0.0
2015-Apr-20 02:31N 34°40' E 135°24'0 0.0
2015-Apr-20 01:31N 34°40' E 135°24'0 0.0
2015-Apr-20 00:31N 34°40' E 135°24'0 0.0
2015-Apr-19 23:31N 34°40' E 135°24'0 0.0
2015-Apr-19 21:31N 34°40' E 135°24'0 0.0
2015-Apr-19 20:31N 34°40' E 135°24'0 0.0
2015-Apr-19 19:31N 34°40' E 135°24'0 0.0
2015-Apr-19 18:31N 34°40' E 135°24'0 0.0
2015-Apr-19 17:19N 34°40' E 135°24'0 0.0
2015-Apr-19 16:31N 34°40' E 135°24'0 0.0
2015-Apr-19 15:25N 34°40' E 135°24'0 0.0
2015-Apr-19 14:31N 34°40' E 135°24'0 0.0
2015-Apr-19 13:31N 34°40' E 135°24'0 0.0
2015-Apr-19 12:31N 34°40' E 135°24'0 0.0
2015-Apr-19 11:31N 34°40' E 135°24'0 0.0
2015-Apr-19 10:31N 34°40' E 135°24'0 0.0
2015-Apr-19 09:31N 34°40' E 135°24'0 0.0
2015-Apr-19 08:31N 34°40' E 135°24'0 0.0
2015-Apr-19 07:25N 34°40' E 135°24'0 0.0
2015-Apr-19 06:31N 34°40' E 135°24'0 0.0
2015-Apr-19 05:31N 34°40' E 135°24'0 0.0
2015-Apr-19 04:13N 34°40' E 135°24'0 0.0
2015-Apr-19 03:31N 34°40' E 135°24'0 0.2
2015-Apr-19 02:33N 34°39' E 135°24'10 9.6
2015-Apr-19 01:33N 34°33' E 135°15'1818.4
2015-Apr-19 00:33N 34°19' E 135°01'2019.7
2015-Apr-18 23:34N 33°60' E 135°00'23515.7
2015-Apr-18 08:33N 35°01' E 139°36'1615.6
2015-Apr-18 07:33N 35°14' E 139°46'1010.2
2015-Apr-18 06:33N 35°24' E 139°42'1212.2
2015-Apr-18 05:34N 35°35' E 139°47'1 1.3
2015-Apr-18 04:33N 35°36' E 139°48'0 0.0
2015-Apr-18 03:33N 35°36' E 139°48'0 0.0
2015-Apr-18 02:33N 35°36' E 139°48'0 0.0
2015-Apr-18 01:33N 35°36' E 139°48'3 2.7
2015-Apr-18 00:33N 35°34' E 139°49'1413.9
2015-Apr-17 23:33N 35°21' E 139°45'1313.3
2015-Apr-17 22:33N 35°07' E 139°46'1815.8
2015-Apr-17 21:25N 34°51' E 139°56'2023.5
2015-Apr-17 20:33N 35°01' E 140°17'2323.0
2015-Apr-17 19:33N 35°18' E 140°36'2323.5
2015-Apr-17 18:33N 35°37' E 140°53'2323.2
2015-Apr-17 17:33N 36°00' E 140°58'  
2015-Apr-14 20:23N 36°00' E 140°59'1518.4
2015-Apr-14 19:33N 35°45' E 140°57'1818.2
2015-Apr-14 18:33N 35°29' E 140°47'1919.2
2015-Apr-14 17:33N 35°14' E 140°33'1918.3
2015-Apr-14 16:33N 35°01' E 140°17'1818.5
2015-Apr-14 15:33N 34°52' E 139°57'1514.7
2015-Apr-14 14:34N 35°01' E 139°43'1615.8
2015-Apr-14 13:33N 35°17' E 139°45'1413.6
2015-Apr-14 12:34N 35°30' E 139°51'7 6.2
2015-Apr-14 11:25N 35°36' E 139°48'0 0.0
2015-Apr-14 10:31N 35°36' E 139°48'0 0.0
2015-Apr-14 09:31N 35°36' E 139°48'0 0.0
2015-Apr-14 08:31N 35°36' E 139°48'0 0.0
2015-Apr-14 07:31N 35°36' E 139°48'0 0.0
2015-Apr-14 06:31N 35°36' E 139°48'0 0.0
2015-Apr-14 05:31N 35°36' E 139°48'0 0.0
2015-Apr-14 04:28N 35°36' E 139°48'0 0.0
2015-Apr-14 03:31N 35°36' E 139°48'0 0.0
2015-Apr-14 02:31N 35°36' E 139°48'0 0.0
2015-Apr-14 01:31N 35°36' E 139°48'6 6.0
2015-Apr-14 00:33N 35°32' E 139°52'1514.6
2015-Apr-13 23:33N 35°19' E 139°44'1515.1
2015-Apr-13 22:34N 35°04' E 139°44'7322.4
2015-Apr-13 19:19N 34°25' E 138°29'17515.8
2015-Apr-13 08:14N 33°56' E 135°00'1623.8
2015-Apr-13 07:33N 34°12' E 134°59'2020.2
2015-Apr-13 06:33N 34°30' E 135°10'1513.3
2015-Apr-13 05:25N 34°40' E 135°24'0 0.0
2015-Apr-13 04:19N 34°40' E 135°24'0 0.0
2015-Apr-13 02:31N 34°40' E 135°24'0 0.0
2015-Apr-13 01:31N 34°40' E 135°24'0 0.0
2015-Apr-13 00:25N 34°40' E 135°24'0 0.0
2015-Apr-12 23:25N 34°40' E 135°24'0 0.0
2015-Apr-12 22:19N 34°40' E 135°24'0 0.0
2015-Apr-12 21:25N 34°40' E 135°24'0 0.0
2015-Apr-12 20:31N 34°40' E 135°24'0 0.0
2015-Apr-12 19:31N 34°40' E 135°24'0 0.0
2015-Apr-12 18:31N 34°40' E 135°24'0 0.0
2015-Apr-12 17:31N 34°40' E 135°24'0 0.0
2015-Apr-12 16:25N 34°40' E 135°24'0 0.0
2015-Apr-12 15:31N 34°40' E 135°24'0 0.0
2015-Apr-12 14:31N 34°40' E 135°24'0 0.0
2015-Apr-12 13:31N 34°40' E 135°24'0 0.0
2015-Apr-12 12:31N 34°40' E 135°24'0 0.0
2015-Apr-12 11:31N 34°40' E 135°24'0 0.0
2015-Apr-12 10:31N 34°40' E 135°24'0 0.0
2015-Apr-12 09:25N 34°40' E 135°24'0 0.0
2015-Apr-12 08:31N 34°40' E 135°24'4 4.5
2015-Apr-12 07:33N 34°36' E 135°21'1111.2
2015-Apr-12 06:33N 34°29' E 135°11'1211.5
2015-Apr-12 05:32N 34°20' E 135°02'1313.4
2015-Apr-12 04:33N 34°07' E 134°59'17314.1
2015-Apr-11 16:16N 34°25' E 138°27'5818.6
2015-Apr-11 13:08N 34°55' E 139°28'1119.2
2015-Apr-11 12:33N 35°03' E 139°38'1515.1
2015-Apr-11 11:33N 35°16' E 139°45'1212.3
2015-Apr-11 10:33N 35°28' E 139°49'8 8.1
2015-Apr-11 09:33N 35°36' E 139°48'0 0.0
2015-Apr-11 08:34N 35°36' E 139°48'0 0.0
2015-Apr-11 07:30N 35°36' E 139°48'0 0.0
2015-Apr-11 06:33N 35°36' E 139°48'2 1.9
2015-Apr-11 05:34N 35°34' E 139°48'1313.2
2015-Apr-11 04:33N 35°22' E 139°45'1211.9
2015-Apr-11 03:33N 35°10' E 139°47'1916.6
2015-Apr-11 02:25N 34°52' E 139°56'2023.0
2015-Apr-11 01:33N 35°02' E 140°17'2323.1
2015-Apr-11 00:34N 35°18' E 140°37'2322.8
2015-Apr-10 23:33N 35°37' E 140°53'2323.2
2015-Apr-10 22:33N 36°00' E 140°57'  
Track history (hours):
 
Tides and Currents Weather Stations Pressure Air Temp Water Temp Dewpoint Dewpoint Depression Visibility Wind Speed Wind Dir Waves Ship Positions

Himawari 2

Last reported at 2015-Apr-20 17:27 UTC. Time now 2015-Apr-21 01:25 UTC.
Position N 33°56' E 135°00'.

Length 161 m; draft 6.5 m.

Type: Cargo ship. MMSI: 431100957.

Date/timePositionNaut miles runAvg speedWind from/ knotsBaromVisibWave heightAir tempDewpointWater temp
2015-Apr-20 17:27N 33°56' E 135°00'1517.2
2015-Apr-20 16:33N 34°11' E 134°59'1616.4
2015-Apr-20 15:33N 34°26' E 135°08'8 7.7
2015-Apr-20 14:33N 34°30' E 135°16'0 0.0
2015-Apr-20 13:33N 34°30' E 135°16'0 0.0
2015-Apr-20 12:33N 34°30' E 135°16'0 0.0
2015-Apr-20 11:27N 34°30' E 135°16'0 0.0
2015-Apr-20 10:21N 34°30' E 135°16'0 0.0
2015-Apr-20 09:27N 34°30' E 135°16'7 8.0
2015-Apr-20 08:33N 34°36' E 135°20'5 4.8
2015-Apr-20 07:31N 34°40' E 135°24'0 0.0
2015-Apr-20 06:25N 34°40' E 135°24'0 0.0
2015-Apr-20 05:25N 34°40' E 135°24'0 0.0
2015-Apr-20 04:25N 34°40' E 135°24'0 0.0
2015-Apr-20 03:25N 34°40' E 135°24'0 0.0
2015-Apr-20 02:31N 34°40' E 135°24'0 0.0
2015-Apr-20 01:31N 34°40' E 135°24'0 0.0
2015-Apr-20 00:31N 34°40' E 135°24'0 0.0
2015-Apr-19 23:31N 34°40' E 135°24'0 0.0
2015-Apr-19 21:31N 34°40' E 135°24'0 0.0
2015-Apr-19 20:31N 34°40' E 135°24'0 0.0
2015-Apr-19 19:31N 34°40' E 135°24'0 0.0
2015-Apr-19 18:31N 34°40' E 135°24'0 0.0
2015-Apr-19 17:19N 34°40' E 135°24'0 0.0
2015-Apr-19 16:31N 34°40' E 135°24'0 0.0
2015-Apr-19 15:25N 34°40' E 135°24'0 0.0
2015-Apr-19 14:31N 34°40' E 135°24'0 0.0
2015-Apr-19 13:31N 34°40' E 135°24'0 0.0
2015-Apr-19 12:31N 34°40' E 135°24'0 0.0
2015-Apr-19 11:31N 34°40' E 135°24'0 0.0
2015-Apr-19 10:31N 34°40' E 135°24'0 0.0
2015-Apr-19 09:31N 34°40' E 135°24'0 0.0
2015-Apr-19 08:31N 34°40' E 135°24'0 0.0
2015-Apr-19 07:25N 34°40' E 135°24'0 0.0
2015-Apr-19 06:31N 34°40' E 135°24'0 0.0
2015-Apr-19 05:31N 34°40' E 135°24'0 0.0
2015-Apr-19 04:13N 34°40' E 135°24'0 0.0
2015-Apr-19 03:31N 34°40' E 135°24'0 0.2
2015-Apr-19 02:33N 34°39' E 135°24'10 9.6
2015-Apr-19 01:33N 34°33' E 135°15'1818.4
2015-Apr-19 00:33N 34°19' E 135°01'2019.7
2015-Apr-18 23:34N 33°60' E 135°00'23515.7
2015-Apr-18 08:33N 35°01' E 139°36'1615.6
2015-Apr-18 07:33N 35°14' E 139°46'1010.2
2015-Apr-18 06:33N 35°24' E 139°42'1212.2
2015-Apr-18 05:34N 35°35' E 139°47'1 1.3
2015-Apr-18 04:33N 35°36' E 139°48'0 0.0
2015-Apr-18 03:33N 35°36' E 139°48'0 0.0
2015-Apr-18 02:33N 35°36' E 139°48'0 0.0
2015-Apr-18 01:33N 35°36' E 139°48'3 2.7
2015-Apr-18 00:33N 35°34' E 139°49'1413.9
2015-Apr-17 23:33N 35°21' E 139°45'1313.3
2015-Apr-17 22:33N 35°07' E 139°46'1815.8
2015-Apr-17 21:25N 34°51' E 139°56'2023.5
2015-Apr-17 20:33N 35°01' E 140°17'2323.0
2015-Apr-17 19:33N 35°18' E 140°36'2323.5
2015-Apr-17 18:33N 35°37' E 140°53'2323.2
2015-Apr-17 17:33N 36°00' E 140°58'  
2015-Apr-14 20:23N 36°00' E 140°59'1518.4
2015-Apr-14 19:33N 35°45' E 140°57'1818.2
2015-Apr-14 18:33N 35°29' E 140°47'1919.2
2015-Apr-14 17:33N 35°14' E 140°33'1918.3
2015-Apr-14 16:33N 35°01' E 140°17'1818.5
2015-Apr-14 15:33N 34°52' E 139°57'1514.7
2015-Apr-14 14:34N 35°01' E 139°43'1615.8
2015-Apr-14 13:33N 35°17' E 139°45'1413.6
2015-Apr-14 12:34N 35°30' E 139°51'7 6.2
2015-Apr-14 11:25N 35°36' E 139°48'0 0.0
2015-Apr-14 10:31N 35°36' E 139°48'0 0.0
2015-Apr-14 09:31N 35°36' E 139°48'0 0.0
2015-Apr-14 08:31N 35°36' E 139°48'0 0.0
2015-Apr-14 07:31N 35°36' E 139°48'0 0.0
2015-Apr-14 06:31N 35°36' E 139°48'0 0.0
2015-Apr-14 05:31N 35°36' E 139°48'0 0.0
2015-Apr-14 04:28N 35°36' E 139°48'0 0.0
2015-Apr-14 03:31N 35°36' E 139°48'0 0.0
2015-Apr-14 02:31N 35°36' E 139°48'0 0.0
2015-Apr-14 01:31N 35°36' E 139°48'6 6.0
2015-Apr-14 00:33N 35°32' E 139°52'1514.6
2015-Apr-13 23:33N 35°19' E 139°44'1515.1
2015-Apr-13 22:34N 35°04' E 139°44'7322.4
2015-Apr-13 19:19N 34°25' E 138°29'17515.8
2015-Apr-13 08:14N 33°56' E 135°00'1623.8
2015-Apr-13 07:33N 34°12' E 134°59'2020.2
2015-Apr-13 06:33N 34°30' E 135°10'1513.3
2015-Apr-13 05:25N 34°40' E 135°24'0 0.0
2015-Apr-13 04:19N 34°40' E 135°24'0 0.0
2015-Apr-13 02:31N 34°40' E 135°24'0 0.0
2015-Apr-13 01:31N 34°40' E 135°24'0 0.0
2015-Apr-13 00:25N 34°40' E 135°24'0 0.0
2015-Apr-12 23:25N 34°40' E 135°24'0 0.0
2015-Apr-12 22:19N 34°40' E 135°24'0 0.0
2015-Apr-12 21:25N 34°40' E 135°24'0 0.0
2015-Apr-12 20:31N 34°40' E 135°24'0 0.0
2015-Apr-12 19:31N 34°40' E 135°24'0 0.0
2015-Apr-12 18:31N 34°40' E 135°24'0 0.0
2015-Apr-12 17:31N 34°40' E 135°24'0 0.0
2015-Apr-12 16:25N 34°40' E 135°24'0 0.0
2015-Apr-12 15:31N 34°40' E 135°24'0 0.0
2015-Apr-12 14:31N 34°40' E 135°24'0 0.0
2015-Apr-12 13:31N 34°40' E 135°24'0 0.0
2015-Apr-12 12:31N 34°40' E 135°24'0 0.0
2015-Apr-12 11:31N 34°40' E 135°24'0 0.0
2015-Apr-12 10:31N 34°40' E 135°24'0 0.0
2015-Apr-12 09:25N 34°40' E 135°24'0 0.0
2015-Apr-12 08:31N 34°40' E 135°24'4 4.5
2015-Apr-12 07:33N 34°36' E 135°21'1111.2
2015-Apr-12 06:33N 34°29' E 135°11'1211.5
2015-Apr-12 05:32N 34°20' E 135°02'1313.4
2015-Apr-12 04:33N 34°07' E 134°59'17314.1
2015-Apr-11 16:16N 34°25' E 138°27'5818.6
2015-Apr-11 13:08N 34°55' E 139°28'1119.2
2015-Apr-11 12:33N 35°03' E 139°38'1515.1
2015-Apr-11 11:33N 35°16' E 139°45'1212.3
2015-Apr-11 10:33N 35°28' E 139°49'8 8.1
2015-Apr-11 09:33N 35°36' E 139°48'0 0.0
2015-Apr-11 08:34N 35°36' E 139°48'0 0.0
2015-Apr-11 07:30N 35°36' E 139°48'0 0.0
2015-Apr-11 06:33N 35°36' E 139°48'2 1.9
2015-Apr-11 05:34N 35°34' E 139°48'1313.2
2015-Apr-11 04:33N 35°22' E 139°45'1211.9
2015-Apr-11 03:33N 35°10' E 139°47'1916.6
2015-Apr-11 02:25N 34°52' E 139°56'2023.0
2015-Apr-11 01:33N 35°02' E 140°17'2323.1
2015-Apr-11 00:34N 35°18' E 140°37'2322.8
2015-Apr-10 23:33N 35°37' E 140°53'2323.2
2015-Apr-10 22:33N 36°00' E 140°57'  

Dump ship's entire track history